Time;durP1;ratioP1;P1;durP2;ratioP2;P2;SDS_P1;SDS_P2;PMS_P1;PMS_P2;Temp;Humidity;BMP_temperature;BMP_pressure;BME280_temperature;BME280_humidity;BME280_pressure;Samples;Min_cycle;Max_cycle;Signal;HPM_P1;HPM_P2
2024/04/06 00:01:07;;;;;;;3.25;0.93;;;;;;;19.07;56.07;101046.59;5000079;28;20030;-70
2024/04/06 00:03:32;;;;;;;3.25;1.20;;;;;;;19.20;56.01;101081.63;4999095;28;20567;-67
2024/04/06 00:05:57;;;;;;;2.72;1.00;;;;;;;19.12;55.89;101078.78;4982119;28;20029;-69
2024/04/06 00:08:23;;;;;;;1.70;0.80;;;;;;;19.03;55.71;101072.44;5000033;28;20042;-66
2024/04/06 00:10:48;;;;;;;2.08;0.93;;;;;;;19.01;56.00;101065.63;4999355;28;20036;-69
2024/04/06 00:13:13;;;;;;;2.05;0.93;;;;;;;19.11;55.94;101082.38;5000271;28;20030;-66
2024/04/06 00:15:38;;;;;;;1.85;0.90;;;;;;;19.03;55.71;101072.44;4999663;28;20124;-70
2024/04/06 00:18:04;;;;;;;2.13;0.90;;;;;;;19.03;55.67;101071.59;4980871;28;20048;-67
2024/04/06 00:20:30;;;;;;;3.20;1.08;;;;;;;19.12;55.88;101086.72;5000335;28;20061;-68
2024/04/06 00:22:55;;;;;;;3.25;1.10;;;;;;;19.05;55.84;101067.03;4999987;28;20063;-67
2024/04/06 00:25:21;;;;;;;2.70;1.05;;;;;;;19.09;55.83;101081.69;4999076;28;20069;-70
2024/04/06 00:27:46;;;;;;;2.03;0.80;;;;;;;19.13;55.72;101098.09;4995906;28;20034;-66
2024/04/06 00:30:11;;;;;;;2.38;1.08;;;;;;;19.13;55.72;101093.66;5002337;28;20802;-68
2024/04/06 00:32:37;;;;;;;2.90;1.10;;;;;;;19.15;55.64;101093.53;5002910;28;20034;-65
2024/04/06 00:35:02;;;;;;;2.63;1.10;;;;;;;19.03;55.67;101079.53;5003441;28;20038;-68
2024/04/06 00:37:28;;;;;;;2.92;1.17;;;;;;;19.14;55.68;101091.88;5003324;28;20034;-69
2024/04/06 00:39:53;;;;;;;2.28;0.75;;;;;;;19.08;55.80;101081.81;5002875;28;20518;-66
2024/04/06 00:42:18;;;;;;;3.08;1.00;;;;;;;19.06;55.79;101076.63;5003710;28;20065;-66
2024/04/06 00:44:43;;;;;;;2.35;0.90;;;;;;;19.10;55.63;101093.06;4984475;28;20034;-68
2024/04/06 00:47:09;;;;;;;2.75;1.00;;;;;;;19.12;55.51;101094.63;5003254;28;20113;-67
2024/04/06 00:49:34;;;;;;;2.70;0.93;;;;;;;18.95;55.37;101066.94;5003093;28;20053;-66
2024/04/06 00:52:00;;;;;;;2.90;1.08;;;;;;;19.00;55.64;101066.56;4989659;28;20033;-70
2024/04/06 00:54:26;;;;;;;1.65;0.90;;;;;;;19.01;55.62;101069.09;5003526;28;20172;-66
2024/04/06 00:56:53;;;;;;;2.10;0.80;;;;;;;19.09;55.75;101086.09;5002644;28;20077;-69
2024/04/06 00:59:18;;;;;;;2.45;0.82;;;;;;;18.99;55.48;101072.81;5002791;28;20034;-67
2024/04/06 01:01:44;;;;;;;2.97;1.08;;;;;;;18.96;55.73;101058.06;5002001;28;20088;-66
2024/04/06 01:04:09;;;;;;;2.28;0.95;;;;;;;18.97;55.59;101066.81;5003360;28;20547;-65
2024/04/06 01:06:35;;;;;;;3.40;1.00;;;;;;;19.08;55.70;101085.28;5002010;28;20057;-69
2024/04/06 01:09:00;;;;;;;3.33;1.10;;;;;;;18.96;55.66;101059.84;5002649;28;20067;-65
2024/04/06 01:11:25;;;;;;;3.28;1.15;;;;;;;18.99;55.39;101078.09;5002914;28;20871;-67
2024/04/06 01:13:51;;;;;;;2.38;0.82;;;;;;;18.82;55.64;101045.13;5002282;28;20057;-69
2024/04/06 01:16:16;;;;;;;2.05;1.00;;;;;;;18.99;55.65;101078.94;5002637;28;20539;-68
2024/04/06 01:18:42;;;;;;;1.70;0.80;;;;;;;18.93;55.47;101073.31;4984870;28;20076;-66
2024/04/06 01:21:07;;;;;;;2.70;0.90;;;;;;;18.91;55.43;101060.22;5001369;28;20121;-65
2024/04/06 01:23:35;;;;;;;2.88;1.00;;;;;;;18.92;55.37;101061.91;5002780;28;20546;-71
2024/04/06 01:26:00;;;;;;;2.13;0.95;;;;;;;18.83;55.66;101046.78;5002967;28;20042;-66
2024/04/06 01:28:26;;;;;;;2.25;0.93;;;;;;;18.93;55.50;101057.47;5002082;28;20556;-69
2024/04/06 01:30:51;;;;;;;2.47;0.80;;;;;;;18.90;55.39;101049.78;5002931;28;20030;-66
2024/04/06 01:33:16;;;;;;;2.42;0.90;;;;;;;18.91;55.35;101054.09;5002339;28;20061;-65
2024/04/06 01:35:42;;;;;;;2.70;0.98;;;;;;;18.85;55.37;101048.38;4983994;28;20044;-68
2024/04/06 01:38:07;;;;;;;2.22;0.88;;;;;;;18.92;55.34;101056.63;5002208;28;20104;-66
2024/04/06 01:40:32;;;;;;;2.40;0.90;;;;;;;18.95;55.35;101064.31;4984346;28;20048;-67
2024/04/06 01:42:57;;;;;;;2.67;0.90;;;;;;;18.95;55.15;101066.13;5001149;28;20068;-66
2024/04/06 01:45:23;;;;;;;3.47;1.00;;;;;;;19.03;55.38;101084.81;5002511;28;20041;-67
2024/04/06 01:47:48;;;;;;;3.33;1.08;;;;;;;19.03;55.38;101088.28;5001849;28;20033;-68
2024/04/06 01:50:13;;;;;;;2.15;0.90;;;;;;;19.00;55.32;101087.69;5002238;28;20888;-66
2024/04/06 01:52:39;;;;;;;2.90;1.02;;;;;;;19.02;55.26;101089.22;5001891;28;20065;-70
2024/04/06 01:55:06;;;;;;;3.85;1.15;;;;;;;19.01;55.33;101086.75;5001819;28;20112;-66
2024/04/06 01:57:31;;;;;;;2.42;1.05;;;;;;;18.91;55.21;101065.50;5001680;28;20136;-70
2024/04/06 01:59:57;;;;;;;2.55;1.00;;;;;;;18.85;55.30;101045.72;5002652;28;20563;-66
2024/04/06 02:02:23;;;;;;;2.17;0.90;;;;;;;18.98;55.28;101056.13;5001120;28;20053;-69
2024/04/06 02:04:49;;;;;;;2.65;1.10;;;;;;;18.88;55.31;101039.34;5001679;28;20038;-66
2024/04/06 02:07:18;;;;;;;2.45;1.00;;;;;;;18.97;55.13;101062.38;5002236;28;20822;-68
2024/04/06 02:09:43;;;;;;;3.72;1.20;;;;;;;18.88;55.29;101046.44;5000718;28;20029;-68
2024/04/06 02:12:09;;;;;;;2.92;1.10;;;;;;;18.84;55.38;101035.28;5001057;28;20068;-67
2024/04/06 02:14:34;;;;;;;1.73;0.70;;;;;;;18.89;55.16;101034.91;5001703;28;20522;-66
2024/04/06 02:17:03;;;;;;;2.97;1.00;;;;;;;18.92;55.16;101032.84;5000630;28;20064;-69
2024/04/06 02:19:28;;;;;;;3.25;0.90;;;;;;;18.80;55.53;101010.06;5001694;28;20022;-66
2024/04/06 02:21:53;;;;;;;2.38;0.90;;;;;;;18.84;55.36;101033.47;5001324;28;20049;-70
2024/04/06 02:24:19;;;;;;;1.75;0.80;;;;;;;18.95;55.29;101037.06;5001114;28;20084;-67
2024/04/06 02:26:44;;;;;;;1.35;0.80;;;;;;;18.94;55.34;101041.50;4983167;28;20061;-67
2024/04/06 02:29:09;;;;;;;2.38;1.00;;;;;;;18.87;55.20;101037.69;5001862;28;20034;-70
2024/04/06 02:31:36;;;;;;;2.20;0.93;;;;;;;18.82;55.25;101021.34;5000914;28;21281;-67
2024/04/06 02:34:01;;;;;;;2.22;0.93;;;;;;;18.87;55.24;101029.75;5001381;28;20108;-68
2024/04/06 02:36:27;;;;;;;2.13;0.98;;;;;;;18.93;55.33;101039.81;5001139;28;20112;-66
2024/04/06 02:38:52;;;;;;;2.53;1.10;;;;;;;18.83;55.47;101033.56;5000345;28;20033;-66
2024/04/06 02:41:17;;;;;;;2.35;0.90;;;;;;;18.83;55.31;101031.78;5001566;28;20275;-67
2024/04/06 02:43:42;;;;;;;1.67;0.80;;;;;;;18.95;55.32;101051.09;5000903;28;20120;-67
2024/04/06 02:46:08;;;;;;;1.60;0.93;;;;;;;18.90;55.39;101036.56;5000469;28;20033;-65
2024/04/06 02:48:33;;;;;;;2.80;1.10;;;;;;;18.90;55.27;101039.22;5001104;28;20068;-66
2024/04/06 02:50:59;;;;;;;1.73;0.95;;;;;;;18.83;55.27;101029.16;5000935;28;20045;-66
2024/04/06 02:53:24;;;;;;;2.40;1.00;;;;;;;18.80;55.26;101024.13;5000385;28;20061;-66
2024/04/06 02:55:50;;;;;;;2.88;1.00;;;;;;;18.90;55.11;101029.50;5000868;28;20551;-66
2024/04/06 02:58:15;;;;;;;3.33;1.02;;;;;;;18.92;55.21;101032.03;5000005;28;20042;-67
2024/04/06 03:00:40;;;;;;;2.63;1.05;;;;;;;18.82;55.20;101019.53;4990282;28;20551;-65
2024/04/06 03:03:05;;;;;;;2.35;1.00;;;;;;;18.93;55.24;101026.63;5000113;28;20029;-67
2024/04/06 03:05:31;;;;;;;2.92;1.00;;;;;;;18.84;55.37;101015.00;4983031;28;20868;-66
2024/04/06 03:07:56;;;;;;;2.30;0.90;;;;;;;18.82;55.34;101024.81;4986949;28;20041;-68
2024/04/06 03:10:21;;;;;;;3.28;1.10;;;;;;;18.79;55.33;101021.59;5000828;28;20811;-66
2024/04/06 03:12:47;;;;;;;1.85;0.90;;;;;;;18.90;55.28;101029.50;4999934;28;20588;-66
2024/04/06 03:15:12;;;;;;;2.30;1.00;;;;;;;18.83;55.06;101013.31;5000788;28;20033;-65
2024/04/06 03:17:37;;;;;;;2.30;1.00;;;;;;;18.85;55.08;101015.84;5000011;28;20044;-65
2024/04/06 03:20:04;;;;;;;3.25;1.00;;;;;;;18.90;55.02;101015.44;4999993;28;20037;-65
2024/04/06 03:22:30;;;;;;;2.03;0.82;;;;;;;18.85;55.00;100997.38;5000421;28;20057;-67
2024/04/06 03:24:55;;;;;;;1.88;0.98;;;;;;;18.84;54.99;100988.59;5000655;28;20468;-66
2024/04/06 03:27:20;;;;;;;2.47;0.73;;;;;;;18.79;55.24;100974.06;4999918;28;20038;-66
2024/04/06 03:29:46;;;;;;;2.05;1.00;;;;;;;18.80;55.15;100981.00;5000639;28;20045;-66
2024/04/06 03:32:11;;;;;;;2.75;1.10;;;;;;;18.88;55.07;100990.97;4992467;28;20037;-66
2024/04/06 03:34:36;;;;;;;2.60;1.00;;;;;;;18.90;54.94;100997.81;4982111;28;20128;-67
2024/04/06 03:37:03;;;;;;;2.25;1.00;;;;;;;18.91;54.90;101003.94;5000261;28;20068;-66
2024/04/06 03:39:29;;;;;;;1.88;0.93;;;;;;;18.83;54.91;101002.75;5000420;28;20038;-66
2024/04/06 03:41:54;;;;;;;3.13;1.00;;;;;;;18.78;54.70;101004.06;4999650;28;20034;-65
2024/04/06 03:44:19;;;;;;;2.72;1.10;;;;;;;18.73;54.98;100999.16;5000168;28;20144;-69
2024/04/06 03:46:45;;;;;;;2.08;0.98;;;;;;;18.76;54.96;100998.91;5000418;28;20042;-66
2024/04/06 03:49:10;;;;;;;1.83;0.80;;;;;;;18.73;54.95;100999.16;4999468;28;20158;-69
2024/04/06 03:51:35;;;;;;;1.87;0.90;;;;;;;18.77;54.87;101003.25;5000799;28;20034;-66
2024/04/06 03:54:00;;;;;;;4.43;1.20;;;;;;;18.71;54.94;100992.31;5000041;28;20831;-66
2024/04/06 03:56:26;;;;;;;2.22;1.00;;;;;;;18.73;54.84;100988.59;5000040;28;20036;-65
2024/04/06 03:58:52;;;;;;;2.58;1.20;;;;;;;18.84;55.02;101016.81;4999999;28;20444;-65
2024/04/06 04:01:17;;;;;;;1.98;0.90;;;;;;;18.70;54.84;100985.38;5000571;28;20026;-70
2024/04/06 04:03:42;;;;;;;2.13;1.00;;;;;;;18.72;55.01;100975.53;4999069;28;20116;-65
2024/04/06 04:06:08;;;;;;;2.67;0.90;;;;;;;18.75;54.76;100972.63;5004444;28;20030;-68
2024/04/06 04:08:33;;;;;;;2.20;1.08;;;;;;;18.87;54.89;100992.78;5003321;28;20384;-66
2024/04/06 04:10:58;;;;;;;2.50;1.00;;;;;;;18.65;54.88;100960.19;5003677;28;20081;-66
2024/04/06 04:13:24;;;;;;;3.03;0.98;;;;;;;18.81;54.83;100983.53;5003945;28;20038;-65
2024/04/06 04:15:49;;;;;;;2.85;1.20;;;;;;;18.79;54.66;100982.81;5003435;28;20088;-67
2024/04/06 04:18:16;;;;;;;2.35;1.10;;;;;;;18.70;54.75;100980.94;5002747;28;20033;-69
2024/04/06 04:20:41;;;;;;;2.33;1.02;;;;;;;18.81;54.73;100999.38;5003958;28;20049;-66
2024/04/06 04:23:07;;;;;;;2.20;1.10;;;;;;;18.66;54.74;100977.72;5003489;28;20038;-66
2024/04/06 04:25:32;;;;;;;1.77;0.98;;;;;;;18.75;54.58;100991.13;5003404;28;20034;-67
2024/04/06 04:27:59;;;;;;;3.90;1.20;;;;;;;18.84;54.83;100998.31;5003644;28;20053;-66
2024/04/06 04:30:25;;;;;;;3.45;1.33;;;;;;;18.69;55.01;100968.69;5002910;28;20033;-65
2024/04/06 04:32:53;;;;;;;1.83;1.10;;;;;;;18.76;54.81;100983.06;5003238;28;20029;-69
2024/04/06 04:35:20;;;;;;;2.53;1.00;;;;;;;18.70;54.83;100969.53;5003723;28;20033;-65
2024/04/06 04:37:45;;;;;;;2.70;1.10;;;;;;;18.78;54.85;100970.56;5002272;28;20577;-66
2024/04/06 04:40:11;;;;;;;1.85;0.82;;;;;;;18.83;54.76;100975.47;5003387;28;20030;-69
2024/04/06 04:42:37;;;;;;;2.35;1.00;;;;;;;18.82;54.79;100957.97;5003283;28;20487;-65
2024/04/06 04:45:09;;;;;;;2.75;1.08;;;;;;;18.75;54.76;100947.06;5002700;28;20446;-66
2024/04/06 04:47:34;;;;;;;2.47;1.10;;;;;;;18.81;54.57;100954.47;5003227;28;20038;-69
2024/04/06 04:50:00;;;;;;;2.72;1.00;;;;;;;18.62;54.62;100926.13;5003672;28;20050;-67
2024/04/06 04:52:25;;;;;;;2.40;1.10;;;;;;;18.77;54.48;100945.16;5002626;28;20030;-67
2024/04/06 04:54:51;;;;;;;2.70;1.10;;;;;;;18.63;54.56;100925.16;5003252;28;20037;-66
2024/04/06 04:57:16;;;;;;;2.15;0.90;;;;;;;18.80;54.80;100951.97;5002908;28;20399;-67
2024/04/06 04:59:41;;;;;;;2.25;1.00;;;;;;;18.64;54.72;100923.34;5002683;28;20042;-69
2024/04/06 05:02:06;;;;;;;2.95;1.30;;;;;;;18.60;54.68;100917.50;5002719;28;20042;-67
2024/04/06 05:04:32;;;;;;;2.30;1.00;;;;;;;18.77;54.50;100941.66;4998978;28;20065;-66
2024/04/06 05:06:57;;;;;;;4.20;1.10;;;;;;;18.77;54.69;100952.22;5001993;28;20462;-66
2024/04/06 05:09:22;;;;;;;2.47;0.85;;;;;;;18.52;54.80;100912.00;5002900;28;20069;-67
2024/04/06 05:11:48;;;;;;;2.25;1.05;;;;;;;18.64;54.61;100926.84;5001894;28;20084;-68
2024/04/06 05:14:13;;;;;;;2.17;0.95;;;;;;;18.75;54.68;100956.78;4985713;28;20108;-67
2024/04/06 05:16:39;;;;;;;3.15;1.23;;;;;;;18.64;54.54;100939.19;5001316;28;20507;-65
2024/04/06 05:19:05;;;;;;;2.13;0.98;;;;;;;18.73;54.56;100959.56;5001904;28;20110;-68
2024/04/06 05:21:31;;;;;;;3.38;1.40;;;;;;;18.60;54.64;100946.53;4984672;28;20349;-69
2024/04/06 05:23:58;;;;;;;2.17;1.10;;;;;;;18.77;54.40;100965.41;5002673;28;20096;-68
2024/04/06 05:26:23;;;;;;;3.33;1.30;;;;;;;18.70;54.56;100946.59;4984403;28;20033;-66
2024/04/06 05:28:48;;;;;;;2.08;0.88;;;;;;;18.62;54.43;100931.41;5001994;28;20030;-69
2024/04/06 05:31:13;;;;;;;3.67;1.25;;;;;;;18.76;54.28;100945.28;5003472;28;20119;-66
2024/04/06 05:33:39;;;;;;;3.95;1.10;;;;;;;18.65;54.62;100927.69;4983912;28;20038;-69
2024/04/06 05:36:06;;;;;;;2.92;1.10;;;;;;;18.71;54.85;100939.50;5002865;28;20049;-65
2024/04/06 05:38:32;;;;;;;2.75;1.20;;;;;;;18.62;54.40;100930.56;5002091;28;20498;-66
2024/04/06 05:40:57;;;;;;;3.67;1.23;;;;;;;18.69;54.64;100937.00;5001757;28;20034;-68
2024/04/06 05:43:22;;;;;;;2.55;1.10;;;;;;;18.70;54.46;100937.88;4988792;28;20048;-70
2024/04/06 05:46:02;;;;;;;2.60;1.10;;;;;;;18.71;54.24;100944.78;5002039;28;20034;-70
2024/04/06 05:48:28;;;;;;;2.47;0.90;;;;;;;18.77;54.45;100960.13;5001562;28;20049;-66
2024/04/06 05:50:53;;;;;;;2.55;1.17;;;;;;;18.61;54.52;100935.03;5002210;28;20029;-66
2024/04/06 05:53:19;;;;;;;2.90;1.10;;;;;;;18.72;54.57;100951.75;5002246;28;20129;-66
2024/04/06 05:55:45;;;;;;;4.07;1.15;;;;;;;18.68;54.66;100946.72;4990966;28;20077;-68
2024/04/06 05:58:11;;;;;;;2.53;1.00;;;;;;;18.64;54.63;100928.63;5001840;28;20128;-66
2024/04/06 06:00:36;;;;;;;2.97;1.23;;;;;;;18.74;54.96;100955.97;4984655;28;20193;-66
2024/04/06 06:03:01;;;;;;;2.97;1.40;;;;;;;18.63;54.76;100927.81;5000447;28;20034;-65
2024/04/06 06:05:27;;;;;;;2.53;1.10;;;;;;;18.80;54.92;100944.91;4998089;28;20114;-65
2024/04/06 06:07:52;;;;;;;2.42;1.25;;;;;;;18.65;55.11;100922.41;4982893;28;20045;-66
2024/04/06 06:10:18;;;;;;;1.92;0.90;;;;;;;18.81;55.13;100948.38;5000939;28;20431;-64
2024/04/06 06:12:44;;;;;;;2.72;1.20;;;;;;;18.76;55.40;100938.19;5000524;28;20076;-70
2024/04/06 06:15:09;;;;;;;3.00;1.27;;;;;;;18.71;55.55;100923.69;5001029;28;20038;-67
2024/04/06 06:17:35;;;;;;;2.72;1.33;;;;;;;18.75;55.37;100939.13;4982614;28;20056;-65
2024/04/06 06:20:01;;;;;;;3.50;1.25;;;;;;;18.73;55.62;100927.06;5000082;28;20036;-66
2024/04/06 06:22:29;;;;;;;3.28;1.13;;;;;;;18.84;55.97;100948.97;5000628;28;20850;-67
2024/04/06 06:24:55;;;;;;;3.00;1.10;;;;;;;18.64;55.72;100897.81;5000176;28;20472;-67
2024/04/06 06:27:21;;;;;;;3.97;1.00;;;;;;;18.83;55.79;100944.66;5000376;28;20101;-66
2024/04/06 06:29:46;;;;;;;3.20;1.25;;;;;;;18.82;55.69;100942.13;4999964;28;20104;-70
2024/04/06 06:32:11;;;;;;;3.25;1.17;;;;;;;18.88;55.69;100940.81;5001087;28;20033;-67
2024/04/06 06:34:37;;;;;;;2.95;1.13;;;;;;;18.87;55.70;100947.91;5000228;28;20511;-67
2024/04/06 06:37:02;;;;;;;3.10;1.25;;;;;;;18.79;55.94;100929.19;4999638;28;20053;-68
2024/04/06 06:39:29;;;;;;;2.78;1.10;;;;;;;18.90;55.92;100952.06;5000745;28;20183;-67
2024/04/06 06:41:54;;;;;;;2.95;0.90;;;;;;;18.80;55.85;100929.06;5000280;28;20423;-67
2024/04/06 06:44:20;;;;;;;3.63;1.10;;;;;;;18.76;56.20;100917.06;5000760;28;20045;-65
2024/04/06 06:46:45;;;;;;;2.80;1.20;;;;;;;18.79;56.17;100924.75;4998939;28;20124;-66
2024/04/06 06:49:10;;;;;;;3.40;1.23;;;;;;;18.91;56.33;100935.28;4999578;28;20057;-66
2024/04/06 06:51:37;;;;;;;2.75;0.98;;;;;;;18.90;56.32;100930.94;4999300;28;20037;-66
2024/04/06 06:54:03;;;;;;;1.92;1.00;;;;;;;18.86;56.19;100917.16;4999643;28;20042;-69
2024/04/06 06:56:28;;;;;;;3.08;1.08;;;;;;;18.95;56.30;100926.16;5000372;28;20030;-67
2024/04/06 06:58:54;;;;;;;1.83;0.90;;;;;;;18.76;56.50;100884.56;4999192;28;20053;-67
2024/04/06 07:01:19;;;;;;;3.53;1.20;;;;;;;18.95;56.55;100916.41;4982538;28;20121;-69
2024/04/06 07:03:44;;;;;;;2.83;1.00;;;;;;;18.83;56.28;100899.75;4998514;28;20056;-69
2024/04/06 07:06:12;;;;;;;2.17;1.08;;;;;;;18.94;56.64;100906.78;5000224;28;20498;-66
2024/04/06 07:08:39;;;;;;;2.90;1.20;;;;;;;18.93;56.42;100894.59;4999288;28;20045;-65
2024/04/06 07:11:05;;;;;;;5.72;1.30;;;;;;;18.85;56.59;100881.19;5003028;28;20038;-67
2024/04/06 07:13:31;;;;;;;2.50;1.10;;;;;;;18.85;56.61;100874.09;4998044;28;20040;-66
2024/04/06 07:16:09;;;;;;;3.70;1.15;;;;;;;18.98;56.62;100891.56;4999749;28;20216;-67
2024/04/06 07:18:39;;;;;;;3.08;1.40;;;;;;;18.96;56.69;100885.53;4999548;28;20531;-68
2024/04/06 07:21:07;;;;;;;2.78;1.00;;;;;;;18.92;56.55;100881.50;4998188;28;20042;-65
2024/04/06 07:23:33;;;;;;;3.22;1.20;;;;;;;18.96;56.53;100891.69;4996428;28;20042;-67
2024/04/06 07:25:58;;;;;;;2.78;1.15;;;;;;;18.91;56.23;100879.81;4998292;28;20036;-68
2024/04/06 07:28:23;;;;;;;3.80;1.27;;;;;;;19.01;56.39;100894.75;5000205;28;20033;-70
2024/04/06 07:30:48;;;;;;;2.97;1.02;;;;;;;18.89;56.26;100864.09;4998890;28;20064;-66
2024/04/06 07:33:14;;;;;;;3.05;1.10;;;;;;;18.97;56.19;100872.22;4998606;28;20340;-68
2024/04/06 07:35:40;;;;;;;2.42;1.20;;;;;;;18.89;56.43;100861.47;4999785;28;20041;-67
2024/04/06 07:38:05;;;;;;;1.52;0.90;;;;;;;19.06;56.36;100883.81;4981703;28;20038;-70
2024/04/06 07:40:31;;;;;;;3.22;0.98;;;;;;;19.05;56.17;100884.78;4982501;28;20034;-69
2024/04/06 07:42:57;;;;;;;3.03;0.98;;;;;;;19.04;56.22;100869.88;4985218;28;20065;-71
2024/04/06 07:45:23;;;;;;;4.18;1.20;;;;;;;19.06;56.32;100873.25;4985887;28;20045;-69
2024/04/06 07:47:48;;;;;;;2.60;0.90;;;;;;;18.94;56.01;100853.16;5002641;28;20026;-67
2024/04/06 07:50:14;;;;;;;3.38;1.20;;;;;;;18.88;56.35;100838.66;5004507;28;20068;-67
2024/04/06 07:52:40;;;;;;;2.70;1.10;;;;;;;18.96;56.04;100852.06;5003248;28;20804;-66
2024/04/06 07:55:05;;;;;;;2.58;1.02;;;;;;;19.10;56.02;100877.28;5002833;28;20026;-66
2024/04/06 07:57:31;;;;;;;3.08;1.10;;;;;;;18.98;55.97;100857.22;5003070;28;20491;-67
2024/04/06 07:59:57;;;;;;;3.38;1.38;;;;;;;19.13;55.90;100882.31;5003754;28;20392;-69
2024/04/06 08:02:23;;;;;;;2.33;1.15;;;;;;;19.10;55.97;100877.28;4985300;28;20144;-70
2024/04/06 08:04:50;;;;;;;5.10;1.10;;;;;;;19.03;56.09;100866.41;5003519;28;20038;-69
2024/04/06 08:07:15;;;;;;;2.90;1.00;;;;;;;19.00;55.93;100855.28;4985868;28;20062;-69
2024/04/06 08:09:41;;;;;;;2.83;1.17;;;;;;;19.15;55.81;100883.03;5002311;28;20331;-69
2024/04/06 08:12:06;;;;;;;1.88;0.93;;;;;;;19.12;55.90;100880.66;5003246;28;20077;-68
2024/04/06 08:14:32;;;;;;;3.60;1.02;;;;;;;19.18;55.81;100881.94;5003144;28;20030;-67
2024/04/06 08:16:57;;;;;;;2.75;1.02;;;;;;;18.99;55.67;100854.44;5002328;28;20369;-67
2024/04/06 08:19:23;;;;;;;3.58;1.40;;;;;;;19.19;55.86;100879.16;5002572;28;20447;-67
2024/04/06 08:21:48;;;;;;;2.58;1.10;;;;;;;19.14;55.56;100862.03;5002332;28;20034;-67
2024/04/06 08:24:14;;;;;;;3.78;1.10;;;;;;;18.99;55.69;100830.69;5002668;28;20030;-69
2024/04/06 08:26:39;;;;;;;2.30;1.10;;;;;;;19.03;56.03;100837.34;5003042;28;20033;-69
2024/04/06 08:29:04;;;;;;;4.60;1.30;;;;;;;19.21;55.52;100866.63;5002105;28;20807;-72
2024/04/06 08:31:29;;;;;;;3.22;1.20;;;;;;;19.10;55.68;100842.13;5002053;28;20042;-68
2024/04/06 08:33:55;;;;;;;10.73;1.20;;;;;;;19.03;55.40;100840.00;4984168;28;20029;-70
2024/04/06 08:36:20;;;;;;;3.25;0.98;;;;;;;19.20;54.77;100862.34;5002137;28;20060;-67
2024/04/06 08:38:45;;;;;;;2.47;1.02;;;;;;;19.08;54.47;100841.44;5002204;28;20109;-68
2024/04/06 08:41:12;;;;;;;4.90;1.38;;;;;;;19.22;54.25;100870.16;5002699;28;20110;-67
2024/04/06 08:43:43;;;;;;;2.80;1.20;;;;;;;19.08;54.29;100833.50;5002061;28;20037;-68
2024/04/06 08:46:08;;;;;;;2.75;1.00;;;;;;;19.14;54.70;100840.91;5003046;28;20033;-68
2024/04/06 08:48:36;;;;;;;3.17;1.10;;;;;;;19.22;54.71;100851.66;5002421;28;20104;-69
2024/04/06 08:51:05;;;;;;;4.20;1.33;;;;;;;19.21;54.84;100844.69;5001694;28;20531;-67
2024/04/06 08:53:31;;;;;;;3.38;1.20;;;;;;;19.12;54.83;100833.09;5002177;28;20026;-68
2024/04/06 08:56:04;;;;;;;3.47;1.20;;;;;;;19.22;55.39;100849.00;5002410;28;20960;-68
2024/04/06 08:58:30;;;;;;;3.08;1.00;;;;;;;19.14;55.31;100831.16;5001898;28;20029;-67
2024/04/06 09:00:56;;;;;;;2.78;1.08;;;;;;;19.15;55.66;100827.56;5001724;28;20052;-69
2024/04/06 09:03:22;;;;;;;2.72;1.10;;;;;;;19.18;55.79;100822.03;5002304;28;20033;-71
2024/04/06 09:05:48;;;;;;;3.22;1.27;;;;;;;19.14;55.88;100807.38;5000787;28;20044;-68
2024/04/06 09:08:17;;;;;;;3.85;1.08;;;;;;;19.23;55.82;100823.41;4990368;28;20030;-71
2024/04/06 09:10:42;;;;;;;5.10;1.20;;;;;;;19.15;55.87;100793.22;5002188;28;20145;-68
2024/04/06 09:13:08;;;;;;;3.75;1.10;;;;;;;19.17;56.01;100787.81;4982767;28;20099;-69
2024/04/06 09:15:33;;;;;;;4.78;1.40;;;;;;;19.31;56.31;100800.66;4989072;28;20119;-70
2024/04/06 09:17:59;;;;;;;2.50;0.95;;;;;;;19.29;56.00;100784.06;5000921;28;20065;-71
2024/04/06 09:20:25;;;;;;;4.78;1.20;;;;;;;19.39;56.33;100802.59;5002088;28;20030;-71
2024/04/06 09:22:52;;;;;;;3.55;1.10;;;;;;;19.34;56.13;100787.19;5001935;28;20037;-71
2024/04/06 09:25:18;;;;;;;2.45;1.10;;;;;;;19.18;56.25;100757.75;5001553;28;20033;-71
2024/04/06 09:27:44;;;;;;;13.52;1.60;;;;;;;19.28;56.08;100777.13;5001802;28;20030;-71
2024/04/06 09:30:11;;;;;;;4.60;1.20;;;;;;;19.37;56.10;100788.69;5001671;28;20564;-72
2024/04/06 09:32:39;;;;;;;4.05;1.02;;;;;;;19.32;56.09;100775.88;5001752;28;20043;-70
2024/04/06 09:35:04;;;;;;;4.72;1.33;;;;;;;19.37;56.26;100781.59;5001935;28;20030;-71
2024/04/06 09:37:35;;;;;;;4.68;1.58;;;;;;;19.36;56.04;100785.22;5002301;28;20049;-71
2024/04/06 09:40:05;;;;;;;3.85;1.05;;;;;;;19.34;56.06;100762.53;5000386;28;20652;-70
2024/04/06 09:42:31;;;;;;;4.07;1.10;;;;;;;19.47;56.04;100783.44;5001371;28;20049;-70
2024/04/06 09:44:56;;;;;;;2.70;1.13;;;;;;;19.32;55.88;100751.28;5001485;28;20030;-71
2024/04/06 09:47:23;;;;;;;7.72;1.50;;;;;;;19.39;55.84;100760.31;4995553;28;20038;-69
2024/04/06 09:49:49;;;;;;;4.15;1.10;;;;;;;19.44;55.93;100771.34;5001396;28;20085;-69
2024/04/06 09:52:16;;;;;;;6.38;1.20;;;;;;;19.52;56.21;100766.22;5001434;28;20561;-69
2024/04/06 09:54:41;;;;;;;3.75;1.20;;;;;;;19.57;55.89;100771.94;5000981;28;20193;-75
2024/04/06 09:57:07;;;;;;;6.07;1.02;;;;;;;19.55;56.09;100771.22;5002849;28;20038;-68
2024/04/06 09:59:32;;;;;;;3.38;1.17;;;;;;;19.48;56.26;100761.34;5002069;28;20033;-78
2024/04/06 10:01:58;;;;;;;4.95;1.10;;;;;;;19.48;55.94;100746.31;4982498;28;20072;-71
2024/04/06 10:04:25;;;;;;;5.78;1.17;;;;;;;19.50;55.93;100751.44;5001928;28;20041;-72
2024/04/06 10:06:52;;;;;;;3.45;1.23;;;;;;;19.52;55.77;100760.09;5001487;28;20025;-69
2024/04/06 10:09:18;;;;;;;3.20;1.17;;;;;;;19.55;56.04;100759.81;5001002;28;20041;-69
2024/04/06 10:11:43;;;;;;;3.72;1.10;;;;;;;19.47;55.77;100746.44;4985697;28;20047;-73
2024/04/06 10:14:09;;;;;;;4.38;1.30;;;;;;;19.57;55.68;100761.34;4986553;28;20084;-75
2024/04/06 10:16:40;;;;;;;4.93;1.27;;;;;;;19.53;55.55;100740.59;5003773;28;20351;-70
2024/04/06 10:19:08;;;;;;;6.30;1.10;;;;;;;19.68;55.13;100767.50;4993481;28;20041;-70
2024/04/06 10:21:35;;;;;;;4.70;1.10;;;;;;;19.47;54.59;100730.56;4983652;28;20464;-72
2024/04/06 10:24:11;;;;;;;4.05;1.23;;;;;;;19.69;53.64;100759.44;4985687;28;20674;-71
2024/04/06 10:26:46;;;;;;;3.65;1.50;;;;;;;19.65;53.50;100746.63;5002309;28;20028;-73
2024/04/06 10:29:12;;;;;;;2.50;1.00;;;;;;;19.63;53.14;100749.41;5001717;28;20041;-73
2024/04/06 10:31:40;;;;;;;2.70;1.00;;;;;;;19.61;52.18;100735.47;5003158;28;20033;-73
2024/04/06 10:34:05;;;;;;;4.55;1.50;;;;;;;19.56;51.96;100727.94;5001298;28;20040;-68
2024/04/06 10:36:31;;;;;;;3.22;1.00;;;;;;;19.60;51.58;100731.19;5001020;28;20030;-69
2024/04/06 10:38:56;;;;;;;3.17;1.13;;;;;;;19.55;51.96;100709.56;4989237;28;20022;-71
2024/04/06 10:41:21;;;;;;;3.15;0.98;;;;;;;19.74;51.33;100743.13;5000094;28;20374;-69
2024/04/06 10:43:49;;;;;;;3.50;1.20;;;;;;;19.68;51.19;100712.81;4999765;28;20838;-71
2024/04/06 10:46:15;;;;;;;3.45;1.00;;;;;;;19.67;50.68;100716.41;5001653;28;20617;-71
2024/04/06 10:48:40;;;;;;;2.75;0.90;;;;;;;19.83;51.42;100749.44;5001329;28;20054;-70
2024/04/06 10:51:06;;;;;;;2.67;1.08;;;;;;;19.72;51.61;100724.75;5000860;28;20068;-70
2024/04/06 10:53:33;;;;;;;3.72;1.20;;;;;;;19.57;51.68;100703.19;5001235;28;20030;-71
2024/04/06 10:55:58;;;;;;;2.92;1.23;;;;;;;19.63;51.75;100707.13;4983353;28;20038;-69
2024/04/06 10:58:24;;;;;;;2.70;0.93;;;;;;;19.64;51.66;100710.56;5002971;28;20044;-69
2024/04/06 11:00:50;;;;;;;3.42;1.05;;;;;;;19.71;51.59;100715.19;5001040;28;20050;-72
2024/04/06 11:03:15;;;;;;;2.80;1.10;;;;;;;19.67;51.30;100716.41;5002394;28;20080;-68
2024/04/06 11:05:41;;;;;;;2.40;1.00;;;;;;;19.62;51.49;100696.69;5000211;28;20216;-78
2024/04/06 11:08:07;;;;;;;3.17;0.90;;;;;;;19.63;52.14;100687.75;4999739;28;20037;-69
2024/04/06 11:10:33;;;;;;;2.28;1.00;;;;;;;19.71;52.06;100690.53;5000648;28;20047;-71
2024/04/06 11:12:59;;;;;;;2.88;1.08;;;;;;;19.76;52.02;100693.66;5002728;28;20034;-70
2024/04/06 11:15:26;;;;;;;2.78;1.15;;;;;;;19.70;52.01;100695.00;4983052;28;20057;-72
2024/04/06 11:17:56;;;;;;;2.53;0.80;;;;;;;19.77;51.67;100710.34;5002474;28;20043;-76